createdAt,value
2022-11-14T00:00:49.486Z,100.00
2022-11-14T00:03:17.170Z,100.00
2022-11-14T00:05:45.604Z,100.00
2022-11-14T00:08:20.120Z,100.00
2022-11-14T00:10:48.313Z,100.00
2022-11-14T00:13:15.945Z,100.00
2022-11-14T00:15:42.996Z,100.00
2022-11-14T00:18:11.450Z,100.00
2022-11-14T00:20:38.037Z,100.00
2022-11-14T00:23:04.938Z,100.00
2022-11-14T00:25:32.264Z,100.00
2022-11-14T00:27:59.593Z,100.00
2022-11-14T00:30:27.768Z,100.00
2022-11-14T00:32:58.593Z,100.00
2022-11-14T00:35:25.242Z,100.00
2022-11-14T00:37:52.415Z,100.00
2022-11-14T00:40:19.036Z,100.00
2022-11-14T00:42:45.492Z,100.00
2022-11-14T00:45:12.802Z,100.00
2022-11-14T00:47:39.491Z,100.00
2022-11-14T00:50:06.662Z,100.00
2022-11-14T00:52:33.238Z,100.00
2022-11-14T00:54:59.809Z,100.00
2022-11-14T00:57:26.271Z,100.00
2022-11-14T00:59:55.670Z,100.00
2022-11-14T01:02:22.831Z,100.00
2022-11-14T01:04:49.461Z,100.00
2022-11-14T01:07:16.034Z,100.00
2022-11-14T01:09:43.358Z,100.00
2022-11-14T01:12:11.356Z,100.00
2022-11-14T01:14:41.107Z,100.00
2022-11-14T01:17:09.716Z,100.00
2022-11-14T01:19:38.105Z,100.00
2022-11-14T01:22:06.806Z,100.00
2022-11-14T01:24:35.670Z,100.00
2022-11-14T01:27:04.056Z,100.00
2022-11-14T01:29:31.939Z,100.00
2022-11-14T01:31:59.637Z,100.00
2022-11-14T01:34:27.743Z,100.00
2022-11-14T01:36:56.067Z,100.00
2022-11-14T01:39:24.113Z,100.00
2022-11-14T01:41:52.282Z,100.00
2022-11-14T01:44:49.777Z,100.00
2022-11-14T01:47:20.786Z,100.00
2022-11-14T01:49:52.532Z,100.00
2022-11-14T01:52:28.872Z,100.00
2022-11-14T01:54:59.894Z,100.00
2022-11-14T01:57:37.573Z,100.00
2022-11-14T02:00:11.607Z,100.00
2022-11-14T02:02:38.575Z,100.00
2022-11-14T02:05:16.873Z,100.00
2022-11-14T02:07:44.612Z,100.00
2022-11-14T02:10:18.345Z,100.00
2022-11-14T02:12:45.933Z,100.00
2022-11-14T02:15:14.839Z,100.00
2022-11-14T02:17:42.981Z,100.00
2022-11-14T02:20:10.889Z,100.00
2022-11-14T02:22:39.755Z,100.00
2022-11-14T02:25:08.615Z,100.00
2022-11-14T02:27:38.581Z,100.00
2022-11-14T02:30:09.307Z,100.00
2022-11-14T02:35:24.345Z,100.00
2022-11-14T02:37:51.633Z,100.00
2022-11-14T02:40:19.244Z,100.00
2022-11-14T02:42:46.905Z,100.00
2022-11-14T02:45:14.646Z,100.00
2022-11-14T02:47:41.876Z,100.00
2022-11-14T02:50:09.783Z,100.00
2022-11-14T02:52:36.705Z,100.00
2022-11-14T02:55:05.276Z,100.00
2022-11-14T02:57:32.574Z,100.00
2022-11-14T03:00:00.065Z,100.00
2022-11-14T03:02:27.780Z,100.00
2022-11-14T03:04:56.135Z,100.00
2022-11-14T03:07:23.816Z,100.00
2022-11-14T03:09:51.795Z,100.00
2022-11-14T03:12:20.418Z,100.00
2022-11-14T03:14:48.130Z,100.00
2022-11-14T03:17:15.676Z,100.00
2022-11-14T03:19:43.524Z,100.00
2022-11-14T03:22:11.430Z,100.00
2022-11-14T03:24:38.945Z,100.00
2022-11-14T03:27:06.292Z,100.00
2022-11-14T03:29:33.641Z,100.00
2022-11-14T03:32:00.990Z,100.00
2022-11-14T03:34:28.695Z,100.00
2022-11-14T03:36:55.952Z,100.00
2022-11-14T03:39:24.327Z,100.00
2022-11-14T03:41:51.666Z,100.00
2022-11-14T03:44:19.719Z,100.00
2022-11-14T03:46:47.225Z,100.00
2022-11-14T03:49:13.892Z,100.00
2022-11-14T03:51:40.694Z,100.00
2022-11-14T03:54:07.722Z,100.00
2022-11-14T03:56:34.422Z,100.00
2022-11-14T03:59:01.622Z,100.00
2022-11-14T04:01:29.340Z,100.00
2022-11-14T04:03:56.266Z,100.00
2022-11-14T04:06:23.567Z,100.00
2022-11-14T04:08:51.915Z,100.00
2022-11-14T04:11:19.587Z,100.00
2022-11-14T04:13:46.849Z,100.00
2022-11-14T04:16:14.284Z,100.00
2022-11-14T04:18:41.763Z,100.00
2022-11-14T04:21:08.550Z,100.00
2022-11-14T04:23:35.390Z,100.00
2022-11-14T04:26:02.595Z,100.00
2022-11-14T04:28:31.921Z,100.00
2022-11-14T04:31:00.884Z,100.00
2022-11-14T04:33:29.182Z,100.00
2022-11-14T04:35:57.779Z,100.00
2022-11-14T04:38:25.819Z,100.00
2022-11-14T04:40:54.254Z,100.00
2022-11-14T04:43:21.257Z,100.00
2022-11-14T04:45:47.855Z,100.00
2022-11-14T04:48:14.503Z,100.00
2022-11-14T04:50:41.130Z,100.00
2022-11-14T04:53:07.837Z,100.00
2022-11-14T04:55:34.450Z,100.00
2022-11-14T04:58:00.948Z,100.00
2022-11-14T05:00:27.480Z,100.00
2022-11-14T05:02:54.003Z,100.00
2022-11-14T05:05:20.786Z,100.00
2022-11-14T05:07:47.375Z,100.00
2022-11-14T05:10:14.067Z,100.00
2022-11-14T05:12:40.576Z,100.00
2022-11-14T05:15:08.131Z,100.00
2022-11-14T05:17:34.635Z,100.00
2022-11-14T05:20:01.144Z,100.00
2022-11-14T05:22:27.716Z,100.00
2022-11-14T05:24:54.454Z,100.00
2022-11-14T05:27:21.017Z,100.00
2022-11-14T05:29:47.462Z,100.00
2022-11-14T05:32:16.418Z,100.00
2022-11-14T05:34:43.264Z,100.00
2022-11-14T05:37:09.716Z,100.00
2022-11-14T05:39:36.228Z,100.00
2022-11-14T05:42:02.629Z,100.00
2022-11-14T05:44:29.121Z,100.00
2022-11-14T05:46:55.630Z,100.00
2022-11-14T05:49:23.182Z,100.00
2022-11-14T05:51:49.629Z,100.00
2022-11-14T05:54:16.301Z,100.00
2022-11-14T05:56:42.734Z,100.00
2022-11-14T05:59:09.139Z,100.00
2022-11-14T06:01:35.682Z,100.00
2022-11-14T06:04:05.828Z,100.00
2022-11-14T06:06:32.269Z,100.00
2022-11-14T06:08:58.692Z,100.00
2022-11-14T06:11:25.141Z,100.00
2022-11-14T06:13:51.579Z,100.00
2022-11-14T06:16:19.346Z,100.00
2022-11-14T06:18:45.972Z,100.00
2022-11-14T06:21:18.088Z,100.00
2022-11-14T06:23:45.394Z,100.00
2022-11-14T06:26:21.542Z,100.00
2022-11-14T06:28:49.532Z,100.00
2022-11-14T06:31:16.241Z,100.00
2022-11-14T06:33:42.760Z,100.00
2022-11-14T06:36:09.940Z,100.00
2022-11-14T06:38:39.222Z,100.00
2022-11-14T06:41:16.516Z,100.00
2022-11-14T06:43:47.761Z,100.00
2022-11-14T06:46:16.841Z,100.00
2022-11-14T06:48:45.134Z,100.00
2022-11-14T06:51:12.743Z,100.00
2022-11-14T06:53:39.888Z,100.00
2022-11-14T06:56:14.853Z,100.00
2022-11-14T06:58:44.024Z,100.00
2022-11-14T07:01:25.989Z,100.00
2022-11-14T07:03:52.570Z,100.00
2022-11-14T07:06:21.909Z,100.00
2022-11-14T07:08:48.754Z,100.00
2022-11-14T07:11:23.257Z,100.00
2022-11-14T07:13:51.292Z,100.00
2022-11-14T07:16:18.647Z,100.00
2022-11-14T07:18:45.550Z,100.00
2022-11-14T07:21:14.539Z,100.00
2022-11-14T07:23:42.674Z,100.00
2022-11-14T07:26:11.487Z,100.00
2022-11-14T07:28:40.744Z,100.00
2022-11-14T07:31:08.749Z,100.00
2022-11-14T07:33:35.503Z,100.00
2022-11-14T07:36:02.378Z,100.00
2022-11-14T07:38:31.115Z,100.00
2022-11-14T07:41:00.448Z,100.00
2022-11-14T07:43:27.821Z,100.00
2022-11-14T07:45:54.825Z,98.88
2022-11-14T07:48:22.428Z,96.02
2022-11-14T07:50:48.906Z,98.56
2022-11-14T07:53:16.679Z,94.54
2022-11-14T07:55:43.667Z,93.66
2022-11-14T07:58:10.144Z,93.36
2022-11-14T08:00:36.666Z,95.18
2022-11-14T08:03:03.290Z,89.86
2022-11-14T08:05:29.733Z,87.76
2022-11-14T08:07:56.236Z,87.23
2022-11-14T08:10:22.719Z,85.05
2022-11-14T08:13:17.548Z,88.90
2022-11-14T08:15:44.414Z,87.74
2022-11-14T08:18:10.942Z,89.20
2022-11-14T08:20:37.371Z,86.64
2022-11-14T08:23:05.158Z,86.55
2022-11-14T08:25:31.813Z,86.71
2022-11-14T08:27:58.339Z,84.42
2022-11-14T08:30:25.241Z,82.71
2022-11-14T08:32:51.757Z,82.80
2022-11-14T08:35:18.262Z,85.37
2022-11-14T08:37:44.730Z,83.55
2022-11-14T08:40:11.975Z,84.75
2022-11-14T08:42:38.459Z,86.67
2022-11-14T08:45:05.564Z,86.88
2022-11-14T08:47:32.053Z,84.69
2022-11-14T08:49:58.495Z,81.66
2022-11-14T08:52:24.973Z,79.30
2022-11-14T08:54:51.481Z,79.58
2022-11-14T08:57:17.885Z,82.64
2022-11-14T08:59:44.320Z,81.91
2022-11-14T09:02:13.853Z,80.91
2022-11-14T09:04:40.378Z,79.42
2022-11-14T09:07:07.053Z,81.59
2022-11-14T09:09:33.569Z,83.65
2022-11-14T09:12:00.133Z,81.79
2022-11-14T09:14:26.833Z,81.01
2022-11-14T09:16:53.371Z,82.24
2022-11-14T09:19:19.895Z,80.91
2022-11-14T09:21:46.346Z,79.89
2022-11-14T09:24:12.830Z,83.23
2022-11-14T09:26:39.284Z,81.54
2022-11-14T09:29:06.557Z,82.64
2022-11-14T09:31:33.190Z,85.24
2022-11-14T09:33:59.842Z,84.45
2022-11-14T09:36:26.422Z,86.98
2022-11-14T09:38:52.878Z,89.30
2022-11-14T09:41:31.700Z,86.60
2022-11-14T09:43:58.158Z,86.91
2022-11-14T09:46:47.429Z,86.21
2022-11-14T09:49:36.865Z,88.52
2022-11-14T09:52:17.565Z,87.33
2022-11-14T09:54:53.060Z,86.44
2022-11-14T09:57:20.433Z,86.28
2022-11-14T09:59:46.854Z,86.21
2022-11-14T10:02:35.211Z,83.88
2022-11-14T10:05:19.764Z,85.83
2022-11-14T10:08:15.408Z,86.29
2022-11-14T10:11:17.308Z,86.65
2022-11-14T10:14:17.724Z,89.85
2022-11-14T10:16:53.447Z,91.65
2022-11-14T10:19:38.654Z,87.78
2022-11-14T10:22:42.807Z,89.91
2022-11-14T10:25:22.936Z,87.35
2022-11-14T10:28:27.217Z,85.12
2022-11-14T10:31:09.528Z,82.76
2022-11-14T10:33:57.592Z,85.96
2022-11-14T10:36:29.976Z,86.31
2022-11-14T10:39:05.510Z,83.15
2022-11-14T10:41:56.272Z,83.40
2022-11-14T10:44:22.372Z,84.24
2022-11-14T10:46:52.475Z,84.02
2022-11-14T10:49:24.599Z,82.49
2022-11-14T10:51:54.474Z,82.79
2022-11-14T10:54:28.888Z,84.78
2022-11-14T10:56:55.519Z,84.92
2022-11-14T10:59:22.475Z,82.59
2022-11-14T11:01:53.847Z,82.90
2022-11-14T11:04:36.590Z,81.82
2022-11-14T11:07:09.273Z,85.39
2022-11-14T11:09:58.647Z,87.49
2022-11-14T11:12:41.058Z,86.90
2022-11-14T11:15:22.869Z,85.96
2022-11-14T11:17:57.382Z,86.14
2022-11-14T11:20:26.396Z,85.14
2022-11-14T11:23:11.833Z,83.37
2022-11-14T11:25:40.208Z,81.33
2022-11-14T11:28:18.478Z,80.47
2022-11-14T11:31:00.429Z,79.83
2022-11-14T11:33:30.315Z,82.43
2022-11-14T11:36:00.388Z,80.43
2022-11-14T11:38:29.335Z,81.72
2022-11-14T11:41:25.876Z,81.96
2022-11-14T11:44:07.607Z,84.87
2022-11-14T11:46:52.573Z,82.16
2022-11-14T11:49:50.058Z,78.68
2022-11-14T11:52:37.889Z,77.98
2022-11-14T11:55:35.703Z,80.59
2022-11-14T11:58:06.459Z,82.05
2022-11-14T12:00:33.406Z,82.24
2022-11-14T12:03:00.371Z,85.76
2022-11-14T12:05:46.410Z,85.04
2022-11-14T12:08:21.726Z,83.01
2022-11-14T12:10:49.051Z,81.39
2022-11-14T12:13:54.149Z,84.69
2022-11-14T12:16:55.304Z,84.53
2022-11-14T12:19:33.586Z,85.90
2022-11-14T12:22:00.086Z,84.16
2022-11-14T12:24:53.644Z,82.09
2022-11-14T12:27:51.351Z,84.07
2022-11-14T12:30:23.492Z,82.73
2022-11-14T12:33:08.568Z,82.45
2022-11-14T12:35:36.414Z,82.55
2022-11-14T12:38:05.146Z,84.52
2022-11-14T12:40:58.368Z,83.10
2022-11-14T12:43:37.291Z,85.80
2022-11-14T12:46:06.462Z,87.20
2022-11-14T12:48:34.886Z,84.67
2022-11-14T12:51:02.404Z,83.33
2022-11-14T12:53:38.071Z,81.50
2022-11-14T12:56:25.866Z,82.47
2022-11-14T12:59:05.756Z,81.68
2022-11-14T13:01:50.846Z,80.27
2022-11-14T13:04:24.850Z,82.85
2022-11-14T13:06:58.508Z,85.39
2022-11-14T13:09:33.847Z,85.64
2022-11-14T13:12:38.862Z,84.83
2022-11-14T13:15:48.825Z,84.79
2022-11-14T13:18:45.400Z,85.65
2022-11-14T13:21:46.024Z,83.77
2022-11-14T13:24:18.595Z,84.91
2022-11-14T13:26:46.109Z,87.87
2022-11-14T13:29:49.668Z,87.79
2022-11-14T13:32:41.823Z,87.25
2022-11-14T13:35:23.492Z,87.16
2022-11-14T13:37:59.891Z,87.28
2022-11-14T13:40:51.451Z,88.74
2022-11-14T13:43:36.629Z,88.46
2022-11-14T13:46:30.720Z,89.17
2022-11-14T13:49:29.590Z,90.44
2022-11-14T13:51:56.383Z,90.37
2022-11-14T13:54:22.954Z,90.72
2022-11-14T13:57:01.309Z,92.02
2022-11-14T13:59:55.302Z,91.75
2022-11-14T14:02:43.690Z,92.23
2022-11-14T14:05:36.347Z,91.85
2022-11-14T14:08:33.545Z,92.58
2022-11-14T14:11:09.394Z,93.07
2022-11-14T14:14:13.778Z,93.69
2022-11-14T14:16:56.098Z,95.17
2022-11-14T14:19:38.578Z,97.79
2022-11-14T14:22:10.154Z,98.91
2022-11-14T14:24:50.946Z,99.33
2022-11-14T14:27:28.944Z,98.79
2022-11-14T14:30:17.275Z,99.71
2022-11-14T14:32:43.851Z,100.00
2022-11-14T14:35:28.475Z,100.00
2022-11-14T14:37:56.375Z,100.00
2022-11-14T14:40:33.790Z,100.00
2022-11-14T14:43:01.660Z,100.00
2022-11-14T14:45:29.803Z,100.00
2022-11-14T14:48:05.962Z,100.00
2022-11-14T14:50:47.570Z,100.00
2022-11-14T14:53:22.385Z,100.00
2022-11-14T14:55:57.424Z,100.00
2022-11-14T14:58:24.995Z,100.00
2022-11-14T15:00:59.314Z,100.00
2022-11-14T15:03:46.975Z,100.00
2022-11-14T15:06:30.608Z,100.00
2022-11-14T15:09:03.295Z,100.00
2022-11-14T15:11:32.681Z,100.00
2022-11-14T15:14:01.183Z,100.00
2022-11-14T15:16:28.707Z,100.00
2022-11-14T15:18:56.614Z,100.00
2022-11-14T15:21:27.484Z,100.00
2022-11-14T15:24:13.573Z,100.00
2022-11-14T15:26:40.404Z,100.00
2022-11-14T15:29:27.922Z,100.00
2022-11-14T15:32:02.523Z,100.00
2022-11-14T15:34:30.565Z,100.00
2022-11-14T15:37:13.776Z,100.00
2022-11-14T15:39:40.815Z,100.00
2022-11-14T15:42:28.840Z,100.00
2022-11-14T15:44:55.928Z,100.00
2022-11-14T15:47:24.771Z,100.00
2022-11-14T15:49:59.379Z,100.00
2022-11-14T15:52:30.730Z,100.00
2022-11-14T15:54:57.218Z,100.00
2022-11-14T15:57:23.749Z,100.00
2022-11-14T15:59:50.249Z,100.00
2022-11-14T16:02:21.036Z,100.00
2022-11-14T16:04:48.182Z,100.00
2022-11-14T16:07:16.590Z,100.00
2022-11-14T16:09:43.535Z,100.00
2022-11-14T16:12:10.373Z,100.00
2022-11-14T16:14:37.159Z,100.00
2022-11-14T16:17:03.989Z,100.00
2022-11-14T16:19:30.708Z,100.00
2022-11-14T16:22:02.856Z,100.00
2022-11-14T16:24:34.009Z,100.00
2022-11-14T16:27:00.878Z,100.00
2022-11-14T16:29:27.502Z,100.00
2022-11-14T16:31:55.278Z,100.00
2022-11-14T16:34:24.243Z,100.00
2022-11-14T16:36:58.108Z,100.00
2022-11-14T16:39:24.650Z,100.00
2022-11-14T16:41:51.147Z,100.00
2022-11-14T16:44:18.762Z,100.00
2022-11-14T16:46:45.945Z,100.00
2022-11-14T16:49:16.431Z,100.00
2022-11-14T16:51:48.940Z,100.00
2022-11-14T16:54:21.289Z,100.00
2022-11-14T16:56:48.487Z,100.00
2022-11-14T16:59:15.290Z,100.00
2022-11-14T17:01:43.126Z,100.00
2022-11-14T17:04:10.222Z,100.00
2022-11-14T17:06:36.810Z,100.00
2022-11-14T17:09:04.237Z,100.00
2022-11-14T17:11:31.041Z,100.00
2022-11-14T17:13:58.187Z,100.00
2022-11-14T17:16:25.632Z,100.00
2022-11-14T17:18:55.825Z,100.00
2022-11-14T17:21:23.028Z,100.00
2022-11-14T17:24:01.683Z,100.00
2022-11-14T17:26:29.040Z,100.00
2022-11-14T17:28:56.134Z,100.00
2022-11-14T17:31:22.832Z,100.00
2022-11-14T17:33:54.114Z,100.00
2022-11-14T17:36:21.474Z,100.00
2022-11-14T17:38:47.986Z,100.00
2022-11-14T17:41:14.461Z,100.00
2022-11-14T17:43:41.071Z,100.00
2022-11-14T17:46:12.545Z,100.00
2022-11-14T17:48:42.725Z,100.00
2022-11-14T17:51:12.763Z,100.00
2022-11-14T17:53:39.776Z,100.00
2022-11-14T17:56:07.781Z,100.00
2022-11-14T17:58:35.033Z,100.00
2022-11-14T18:01:02.479Z,100.00
2022-11-14T18:03:29.043Z,100.00
2022-11-14T18:06:08.050Z,100.00
2022-11-14T18:08:35.025Z,100.00
2022-11-14T18:11:02.844Z,100.00
2022-11-14T18:13:29.388Z,100.00
2022-11-14T18:16:00.672Z,100.00
2022-11-14T18:18:27.133Z,100.00
2022-11-14T18:20:53.706Z,100.00
2022-11-14T18:23:20.139Z,100.00
2022-11-14T18:25:46.835Z,100.00
2022-11-14T18:28:13.268Z,100.00
2022-11-14T18:30:41.769Z,100.00
2022-11-14T18:33:08.530Z,100.00
2022-11-14T18:35:35.109Z,100.00
2022-11-14T18:38:01.594Z,100.00
2022-11-14T18:40:28.042Z,100.00
2022-11-14T18:42:54.474Z,100.00
2022-11-14T18:45:20.959Z,100.00
2022-11-14T18:47:47.392Z,100.00
2022-11-14T18:50:14.230Z,100.00
2022-11-14T18:52:40.732Z,100.00
2022-11-14T18:55:07.996Z,100.00
2022-11-14T18:57:34.632Z,100.00
2022-11-14T19:00:01.155Z,100.00
2022-11-14T19:02:27.696Z,100.00
2022-11-14T19:04:54.257Z,100.00
2022-11-14T19:07:20.775Z,100.00
2022-11-14T19:09:47.389Z,100.00
2022-11-14T19:12:21.842Z,100.00
2022-11-14T19:14:50.489Z,100.00
2022-11-14T19:17:22.392Z,100.00
2022-11-14T19:19:50.056Z,100.00
2022-11-14T19:22:17.147Z,100.00
2022-11-14T19:24:45.057Z,100.00
2022-11-14T19:27:12.453Z,100.00
2022-11-14T19:29:39.068Z,100.00
2022-11-14T19:32:06.107Z,100.00
2022-11-14T19:34:32.821Z,100.00
2022-11-14T19:37:00.792Z,100.00
2022-11-14T19:39:27.894Z,100.00
2022-11-14T19:41:54.336Z,100.00
2022-11-14T19:44:21.035Z,100.00
2022-11-14T19:46:48.274Z,100.00
2022-11-14T19:49:15.236Z,100.00
2022-11-14T19:51:42.052Z,100.00
2022-11-14T19:54:09.698Z,100.00
2022-11-14T19:56:36.325Z,100.00
2022-11-14T19:59:03.069Z,100.00
2022-11-14T20:01:29.649Z,100.00
2022-11-14T20:03:58.699Z,100.00
2022-11-14T20:06:27.920Z,100.00
2022-11-14T20:08:55.302Z,100.00
2022-11-14T20:11:22.927Z,100.00
2022-11-14T20:13:49.812Z,100.00
2022-11-14T20:16:18.767Z,100.00
2022-11-14T20:18:46.375Z,100.00
2022-11-14T20:21:14.202Z,100.00
2022-11-14T20:23:40.655Z,100.00
2022-11-14T20:26:11.204Z,100.00
2022-11-14T20:28:38.891Z,100.00
2022-11-14T20:31:12.588Z,100.00
2022-11-14T20:33:41.107Z,100.00
2022-11-14T20:36:10.907Z,100.00
2022-11-14T20:38:37.403Z,100.00
2022-11-14T20:41:03.983Z,100.00
2022-11-14T20:43:31.106Z,100.00
2022-11-14T20:46:06.563Z,100.00
2022-11-14T20:48:34.242Z,100.00
2022-11-14T20:51:05.689Z,100.00
2022-11-14T20:53:32.869Z,100.00
2022-11-14T20:56:00.503Z,100.00
2022-11-14T20:58:27.854Z,100.00
2022-11-14T21:00:54.604Z,100.00
2022-11-14T21:03:21.537Z,100.00
2022-11-14T21:05:48.129Z,100.00
2022-11-14T21:08:15.305Z,100.00
2022-11-14T21:10:47.905Z,100.00
2022-11-14T21:13:35.181Z,100.00
2022-11-14T21:16:04.026Z,100.00
2022-11-14T21:18:32.086Z,100.00
2022-11-14T21:21:05.652Z,100.00
2022-11-14T21:23:32.474Z,100.00
2022-11-14T21:26:04.145Z,100.00
2022-11-14T21:28:31.867Z,100.00
2022-11-14T21:31:00.666Z,100.00
2022-11-14T21:33:29.153Z,100.00
2022-11-14T21:35:57.236Z,100.00
2022-11-14T21:38:24.326Z,100.00
2022-11-14T21:40:54.560Z,100.00
2022-11-14T21:43:22.290Z,100.00
2022-11-14T21:46:00.163Z,100.00
2022-11-14T21:48:30.530Z,100.00
2022-11-14T21:51:22.494Z,100.00
2022-11-14T21:53:50.526Z,100.00
2022-11-14T21:56:19.788Z,100.00
2022-11-14T21:58:46.237Z,100.00
2022-11-14T22:01:15.299Z,100.00
2022-11-14T22:04:00.846Z,100.00
2022-11-14T22:06:27.909Z,100.00
2022-11-14T22:08:55.642Z,100.00
2022-11-14T22:11:23.385Z,100.00
2022-11-14T22:13:50.064Z,100.00
2022-11-14T22:16:19.386Z,100.00
2022-11-14T22:18:46.713Z,100.00
2022-11-14T22:21:13.517Z,100.00
2022-11-14T22:23:39.887Z,100.00
2022-11-14T22:26:06.396Z,100.00
2022-11-14T22:28:32.774Z,100.00
2022-11-14T22:31:06.995Z,100.00
2022-11-14T22:33:34.756Z,100.00
2022-11-14T22:36:08.083Z,100.00
2022-11-14T22:38:36.431Z,100.00
2022-11-14T22:41:05.207Z,100.00
2022-11-14T22:43:32.973Z,100.00
2022-11-14T22:46:00.506Z,100.00
2022-11-14T22:48:28.937Z,100.00
2022-11-14T22:50:59.956Z,100.00
2022-11-14T22:53:27.973Z,100.00
2022-11-14T22:55:54.724Z,100.00
2022-11-14T22:58:23.455Z,100.00
2022-11-14T23:00:52.413Z,100.00
2022-11-14T23:03:20.654Z,100.00
2022-11-14T23:05:47.702Z,100.00
2022-11-14T23:08:16.024Z,100.00
2022-11-14T23:10:43.019Z,100.00
2022-11-14T23:13:10.028Z,100.00
2022-11-14T23:15:37.325Z,100.00
2022-11-14T23:18:04.923Z,100.00
2022-11-14T23:20:31.512Z,100.00
2022-11-14T23:22:57.854Z,100.00
2022-11-14T23:25:24.228Z,100.00
2022-11-14T23:27:50.870Z,100.00
2022-11-14T23:30:17.418Z,100.00
2022-11-14T23:32:45.464Z,100.00
2022-11-14T23:35:11.967Z,100.00
2022-11-14T23:37:38.328Z,100.00
2022-11-14T23:40:05.219Z,100.00
2022-11-14T23:42:31.601Z,100.00
2022-11-14T23:44:58.040Z,100.00
2022-11-14T23:47:24.392Z,100.00
2022-11-14T23:49:50.789Z,100.00
2022-11-14T23:52:17.691Z,100.00
2022-11-14T23:54:44.391Z,100.00
2022-11-14T23:57:10.728Z,100.00
2022-11-14T23:59:37.080Z,100.00
